createdAt,value
2022-09-12T00:01:14.386Z,78.95
2022-09-12T00:03:42.594Z,78.23
2022-09-12T00:06:13.469Z,78.21
2022-09-12T00:08:42.658Z,77.86
2022-09-12T00:11:12.370Z,77.78
2022-09-12T00:13:42.122Z,83.63
2022-09-12T00:16:16.691Z,84.06
2022-09-12T00:18:46.817Z,82.51
2022-09-12T00:21:15.376Z,80.76
2022-09-12T00:23:44.622Z,80.22
2022-09-12T00:26:15.273Z,82.14
2022-09-12T00:28:46.068Z,83.94
2022-09-12T00:31:16.763Z,84.05
2022-09-12T00:33:45.015Z,82.26
2022-09-12T00:36:15.762Z,81.68
2022-09-12T00:38:46.487Z,83.23
2022-09-12T00:41:18.872Z,84.45
2022-09-12T00:43:48.452Z,88.03
2022-09-12T00:46:27.269Z,89.69
2022-09-12T00:49:00.156Z,87.74
2022-09-12T00:51:30.484Z,86.11
2022-09-12T00:54:02.472Z,91.59
2022-09-12T00:56:30.584Z,95.37
2022-09-12T00:59:03.138Z,93.60
2022-09-12T01:01:32.770Z,90.80
2022-09-12T01:04:03.593Z,88.31
2022-09-12T01:06:36.512Z,86.14
2022-09-12T01:09:06.214Z,84.06
2022-09-12T01:11:38.111Z,84.92
2022-09-12T01:14:07.448Z,83.81
2022-09-12T01:16:36.689Z,82.98
2022-09-12T01:19:26.148Z,86.33
2022-09-12T01:22:12.424Z,89.95
2022-09-12T01:25:09.442Z,89.70
2022-09-12T01:27:59.444Z,86.68
2022-09-12T01:30:45.528Z,85.21
2022-09-12T01:33:27.101Z,85.93
2022-09-12T01:36:17.093Z,86.97
2022-09-12T01:38:50.221Z,87.04
2022-09-12T01:41:27.769Z,86.73
2022-09-12T01:44:06.418Z,85.33
2022-09-12T01:46:44.005Z,85.77
2022-09-12T01:49:18.714Z,85.16
2022-09-12T01:51:54.383Z,84.25
2022-09-12T01:54:28.708Z,83.06
2022-09-12T01:57:01.434Z,82.84
2022-09-12T01:59:34.293Z,83.13
2022-09-12T02:02:08.415Z,83.27
2022-09-12T02:04:40.624Z,82.42
2022-09-12T02:07:15.344Z,84.33
2022-09-12T02:09:48.463Z,84.17
2022-09-12T02:12:20.248Z,83.49
2022-09-12T02:14:52.624Z,83.83
2022-09-12T02:17:24.398Z,87.14
2022-09-12T02:19:56.734Z,86.01
2022-09-12T02:22:28.088Z,85.65
2022-09-12T02:25:00.142Z,84.90
2022-09-12T02:27:34.340Z,84.82
2022-09-12T02:30:02.237Z,84.54
2022-09-12T02:32:38.064Z,82.58
2022-09-12T02:35:10.596Z,85.66
2022-09-12T02:37:56.071Z,83.74
2022-09-12T02:40:24.357Z,81.72
2022-09-12T02:42:52.784Z,80.97
2022-09-12T02:45:20.802Z,83.06
2022-09-12T02:47:52.844Z,84.26
2022-09-12T02:50:20.757Z,83.63
2022-09-12T02:52:48.719Z,84.20
2022-09-12T02:55:17.373Z,84.71
2022-09-12T02:57:47.293Z,83.81
2022-09-12T03:00:15.817Z,84.57
2022-09-12T03:03:08.680Z,89.09
2022-09-12T03:05:42.114Z,88.90
2022-09-12T03:08:39.457Z,86.79
2022-09-12T03:11:28.528Z,85.79
2022-09-12T03:14:07.202Z,85.33
2022-09-12T03:16:42.067Z,84.88
2022-09-12T03:19:19.229Z,84.55
2022-09-12T03:21:59.756Z,83.56
2022-09-12T03:24:34.146Z,82.11
2022-09-12T03:27:09.579Z,86.13
2022-09-12T03:29:39.246Z,90.35
2022-09-12T03:32:07.486Z,92.02
2022-09-12T03:34:35.369Z,90.89
2022-09-12T03:37:04.572Z,87.62
2022-09-12T03:39:32.432Z,86.21
2022-09-12T03:42:00.284Z,85.19
2022-09-12T03:44:30.110Z,84.70
2022-09-12T03:46:57.909Z,83.50
2022-09-12T03:49:25.779Z,84.29
2022-09-12T03:51:53.540Z,86.71
2022-09-12T03:54:23.029Z,87.47
2022-09-12T03:56:50.757Z,89.07
2022-09-12T03:59:18.499Z,88.50
2022-09-12T04:01:46.274Z,88.27
2022-09-12T04:04:16.133Z,87.25
2022-09-12T04:06:44.070Z,89.74
2022-09-12T04:09:11.834Z,88.72
2022-09-12T04:11:40.942Z,86.17
2022-09-12T04:14:08.886Z,84.64
2022-09-12T04:16:36.667Z,83.46
2022-09-12T04:19:04.872Z,83.25
2022-09-12T04:21:32.757Z,82.73
2022-09-12T04:24:00.517Z,81.87
2022-09-12T04:26:29.749Z,84.31
2022-09-12T04:28:59.202Z,84.62
2022-09-12T04:31:27.286Z,83.77
2022-09-12T04:33:55.643Z,83.55
2022-09-12T04:36:24.011Z,82.39
2022-09-12T04:38:52.936Z,81.62
2022-09-12T04:41:22.741Z,82.55
2022-09-12T04:43:54.284Z,88.29
2022-09-12T04:46:23.549Z,86.94
2022-09-12T04:48:56.493Z,85.82
2022-09-12T04:51:27.669Z,84.91
2022-09-12T04:53:58.035Z,82.51
2022-09-12T04:56:27.023Z,83.84
2022-09-12T04:58:54.932Z,83.45
2022-09-12T05:01:24.383Z,82.72
2022-09-12T05:03:52.759Z,82.10
2022-09-12T05:06:22.142Z,81.65
2022-09-12T05:08:53.753Z,80.95
2022-09-12T05:11:26.611Z,80.55
2022-09-12T05:13:58.452Z,79.41
2022-09-12T05:16:28.925Z,82.64
2022-09-12T05:18:58.337Z,82.49
2022-09-12T05:21:30.322Z,81.20
2022-09-12T05:23:59.727Z,81.91
2022-09-12T05:26:28.332Z,80.98
2022-09-12T05:28:56.187Z,81.25
2022-09-12T05:31:26.249Z,81.19
2022-09-12T05:33:56.694Z,82.52
2022-09-12T05:36:42.880Z,83.26
2022-09-12T05:39:10.801Z,88.04
2022-09-12T05:41:39.086Z,91.40
2022-09-12T05:44:14.104Z,94.09
2022-09-12T05:46:44.170Z,92.41
2022-09-12T05:49:14.834Z,89.29
2022-09-12T05:51:44.345Z,87.63
2022-09-12T05:54:17.751Z,86.09
2022-09-12T05:56:46.396Z,85.00
2022-09-12T05:59:16.843Z,84.46
2022-09-12T06:01:47.130Z,83.87
2022-09-12T06:04:17.278Z,84.63
2022-09-12T06:06:48.798Z,85.56
2022-09-12T06:09:17.888Z,85.28
2022-09-12T06:11:46.858Z,85.43
2022-09-12T06:14:16.977Z,85.64
2022-09-12T06:16:44.827Z,83.64
2022-09-12T06:19:17.863Z,82.92
2022-09-12T06:21:47.528Z,82.51
2022-09-12T06:24:15.298Z,82.07
2022-09-12T06:26:43.701Z,83.05
2022-09-12T06:29:14.258Z,82.45
2022-09-12T06:31:44.124Z,82.24
2022-09-12T06:34:15.006Z,82.07
2022-09-12T06:36:45.896Z,81.07
2022-09-12T06:39:18.322Z,82.11
2022-09-12T06:41:47.207Z,82.01
2022-09-12T06:44:17.206Z,81.31
2022-09-12T06:46:45.381Z,79.94
2022-09-12T06:49:14.163Z,79.95
2022-09-12T06:51:43.207Z,80.03
2022-09-12T06:54:14.214Z,80.09
2022-09-12T06:56:42.262Z,79.29
2022-09-12T06:59:10.156Z,80.22
2022-09-12T07:01:38.142Z,80.24
2022-09-12T07:04:06.492Z,80.80
2022-09-12T07:06:38.067Z,79.76
2022-09-12T07:09:07.631Z,78.75
2022-09-12T07:11:39.012Z,78.86
2022-09-12T07:14:10.963Z,77.80
2022-09-12T07:16:39.016Z,76.58
2022-09-12T07:19:08.315Z,76.13
2022-09-12T07:21:40.013Z,76.89
2022-09-12T07:24:10.259Z,76.42
2022-09-12T07:26:42.142Z,75.46
2022-09-12T07:32:02.838Z,72.06
2022-09-12T07:34:30.646Z,70.87
2022-09-12T07:36:58.656Z,71.43
2022-09-12T07:39:26.498Z,70.65
2022-09-12T07:41:56.038Z,69.47
2022-09-12T07:44:23.834Z,69.18
2022-09-12T07:46:52.278Z,67.84
2022-09-12T07:49:20.114Z,67.19
2022-09-12T07:51:47.898Z,66.45
2022-09-12T07:54:15.810Z,64.99
2022-09-12T07:56:43.643Z,64.81
2022-09-12T07:59:13.542Z,65.24
2022-09-12T08:01:41.672Z,63.47
2022-09-12T08:04:09.807Z,63.16
2022-09-12T08:06:37.649Z,63.17
2022-09-12T08:09:07.780Z,62.45
2022-09-12T08:11:35.702Z,61.76
2022-09-12T08:14:05.610Z,59.36
2022-09-12T08:16:35.654Z,59.00
2022-09-12T08:19:04.496Z,59.76
2022-09-12T08:21:33.985Z,59.59
2022-09-12T08:24:03.848Z,56.29
2022-09-12T08:26:32.696Z,55.22
2022-09-12T08:29:00.521Z,55.63
2022-09-12T08:31:29.458Z,59.05
2022-09-12T08:33:59.249Z,56.21
2022-09-12T08:36:29.544Z,54.61
2022-09-12T08:39:00.393Z,54.21
2022-09-12T08:41:34.686Z,55.65
2022-09-12T08:44:27.695Z,54.57
2022-09-12T08:47:18.187Z,52.88
2022-09-12T08:49:54.955Z,50.94
2022-09-12T08:52:28.847Z,53.79
2022-09-12T08:54:57.627Z,50.71
2022-09-12T08:57:25.700Z,50.70
2022-09-12T08:59:54.301Z,48.29
2022-09-12T09:02:42.092Z,48.51
2022-09-12T09:05:22.415Z,52.03
2022-09-12T09:08:16.679Z,48.58
2022-09-12T09:10:50.313Z,47.91
2022-09-12T09:13:50.005Z,49.73
2022-09-12T09:16:26.183Z,47.57
2022-09-12T09:18:57.330Z,47.80
2022-09-12T09:21:31.653Z,47.51
2022-09-12T09:24:05.946Z,47.65
2022-09-12T09:26:44.391Z,47.34
2022-09-12T09:29:17.688Z,47.63
2022-09-12T09:31:49.921Z,44.90
2022-09-12T09:34:21.907Z,47.84
2022-09-12T09:37:04.883Z,46.17
2022-09-12T09:39:44.357Z,45.16
2022-09-12T09:42:27.017Z,44.39
2022-09-12T09:45:01.118Z,43.73
2022-09-12T09:47:29.327Z,43.21
2022-09-12T09:49:57.379Z,41.57
2022-09-12T09:52:30.609Z,42.13
2022-09-12T09:55:00.721Z,43.54
2022-09-12T09:57:44.608Z,46.88
2022-09-12T10:00:30.548Z,47.90
2022-09-12T10:03:11.302Z,47.56
2022-09-12T10:05:48.035Z,44.65
2022-09-12T10:08:24.464Z,45.13
2022-09-12T10:11:01.800Z,43.09
2022-09-12T10:13:36.336Z,42.32
2022-09-12T10:16:08.439Z,40.22
2022-09-12T10:18:40.450Z,40.71
2022-09-12T10:21:31.873Z,42.88
2022-09-12T10:24:06.872Z,43.86
2022-09-12T10:26:38.663Z,45.71
2022-09-12T10:29:16.151Z,43.94
2022-09-12T10:31:48.380Z,45.32
2022-09-12T10:34:30.593Z,45.97
2022-09-12T10:37:04.634Z,43.50
2022-09-12T10:39:38.548Z,43.55
2022-09-12T10:42:07.252Z,43.58
2022-09-12T10:44:36.069Z,43.67
2022-09-12T10:47:22.500Z,43.43
2022-09-12T10:49:50.908Z,40.88
2022-09-12T10:52:23.100Z,39.81
2022-09-12T10:54:52.678Z,40.03
2022-09-12T10:58:09.689Z,38.77
2022-09-12T11:00:50.989Z,37.63
2022-09-12T11:03:25.330Z,38.65
2022-09-12T11:05:56.497Z,37.32
2022-09-12T11:08:41.967Z,39.18
2022-09-12T11:11:23.569Z,38.05
2022-09-12T11:14:07.804Z,39.84
2022-09-12T11:16:44.384Z,38.10
2022-09-12T11:19:27.945Z,38.90
2022-09-12T11:22:19.211Z,36.77
2022-09-12T11:25:15.311Z,35.37
2022-09-12T11:28:00.510Z,35.49
2022-09-12T11:30:38.299Z,35.76
2022-09-12T11:33:25.402Z,34.54
2022-09-12T11:35:57.276Z,34.00
2022-09-12T11:38:40.677Z,35.55
2022-09-12T11:41:10.851Z,36.33
2022-09-12T11:43:47.614Z,34.71
2022-09-12T11:46:23.804Z,32.60
2022-09-12T11:48:58.374Z,33.52
2022-09-12T11:51:29.015Z,32.06
2022-09-12T11:54:06.783Z,32.38
2022-09-12T11:56:39.281Z,33.06
2022-09-12T11:59:16.610Z,34.18
2022-09-12T12:01:56.369Z,32.47
2022-09-12T12:04:30.859Z,32.29
2022-09-12T12:07:04.340Z,33.30
2022-09-12T12:09:32.846Z,32.51
2022-09-12T12:12:05.162Z,32.40
2022-09-12T12:14:39.652Z,31.83
2022-09-12T12:17:16.673Z,31.75
2022-09-12T12:19:44.803Z,33.02
2022-09-12T12:22:22.775Z,34.22
2022-09-12T12:25:04.776Z,33.27
2022-09-12T12:27:53.816Z,33.32
2022-09-12T12:31:02.054Z,31.95
2022-09-12T12:34:16.300Z,31.79
2022-09-12T12:36:46.327Z,31.83
2022-09-12T12:40:01.002Z,32.86
2022-09-12T12:42:59.768Z,32.86
2022-09-12T12:45:50.740Z,32.35
2022-09-12T12:48:20.412Z,30.90
2022-09-12T12:50:48.804Z,31.17
2022-09-12T12:53:23.076Z,31.74
2022-09-12T12:55:53.843Z,33.37
2022-09-12T12:58:32.675Z,34.12
2022-09-12T13:01:13.745Z,33.85
2022-09-12T13:03:44.937Z,33.89
2022-09-12T13:06:33.066Z,33.47
2022-09-12T13:09:05.611Z,32.04
2022-09-12T13:11:36.759Z,32.12
2022-09-12T13:14:07.161Z,32.89
2022-09-12T13:16:37.104Z,32.68
2022-09-12T13:19:09.143Z,33.06
2022-09-12T13:21:37.213Z,33.06
2022-09-12T13:24:15.130Z,32.10
2022-09-12T13:26:46.904Z,32.96
2022-09-12T13:29:17.587Z,32.00
2022-09-12T13:31:47.976Z,35.41
2022-09-12T13:34:21.552Z,33.78
2022-09-12T13:37:06.490Z,33.47
2022-09-12T13:39:47.269Z,31.90
2022-09-12T13:42:33.410Z,33.77
2022-09-12T13:45:05.848Z,34.02
2022-09-12T13:47:36.834Z,33.80
2022-09-12T13:50:07.194Z,33.31
2022-09-12T13:52:37.050Z,33.85
2022-09-12T13:55:15.438Z,34.31
2022-09-12T13:57:43.229Z,32.57
2022-09-12T14:00:19.957Z,32.96
2022-09-12T14:03:11.220Z,34.46
2022-09-12T14:05:40.837Z,34.13
2022-09-12T14:08:10.145Z,32.34
2022-09-12T14:10:44.269Z,32.96
2022-09-12T14:13:14.874Z,32.00
2022-09-12T14:15:46.697Z,32.54
2022-09-12T14:18:24.398Z,34.32
2022-09-12T14:20:56.841Z,33.66
2022-09-12T14:23:30.255Z,33.73
2022-09-12T14:26:02.500Z,34.09
2022-09-12T14:28:31.482Z,33.04
2022-09-12T14:31:01.973Z,33.80
2022-09-12T14:33:34.923Z,32.96
2022-09-12T14:36:13.131Z,32.94
2022-09-12T14:38:44.767Z,33.62
2022-09-12T14:41:22.668Z,32.61
2022-09-12T14:43:55.551Z,32.82
2022-09-12T14:46:28.425Z,34.00
2022-09-12T14:49:01.121Z,34.46
2022-09-12T14:51:33.782Z,33.81
2022-09-12T14:54:02.682Z,34.27
2022-09-12T14:56:43.610Z,34.35
2022-09-12T14:59:32.180Z,34.17
2022-09-12T15:02:33.222Z,34.78
2022-09-12T15:05:17.883Z,34.91
2022-09-12T15:07:53.720Z,33.69
2022-09-12T15:10:25.221Z,34.25
2022-09-12T15:13:14.174Z,34.46
2022-09-12T15:15:43.931Z,34.75
2022-09-12T15:18:13.724Z,34.01
2022-09-12T15:20:43.925Z,34.48
2022-09-12T15:23:18.940Z,34.24
2022-09-12T15:25:47.416Z,34.84
2022-09-12T15:28:22.025Z,35.65
2022-09-12T15:30:54.870Z,34.87
2022-09-12T15:33:25.098Z,34.71
2022-09-12T15:35:53.795Z,35.07
2022-09-12T15:38:25.758Z,34.66
2022-09-12T15:40:54.835Z,33.90
2022-09-12T15:43:26.224Z,35.24
2022-09-12T15:45:54.334Z,35.30
2022-09-12T15:48:22.355Z,35.93
2022-09-12T15:50:50.429Z,35.87
2022-09-12T15:53:18.388Z,35.19
2022-09-12T15:55:46.314Z,36.92
2022-09-12T15:58:14.560Z,36.23
2022-09-12T16:00:43.953Z,36.12
2022-09-12T16:03:22.431Z,36.50
2022-09-12T16:05:50.829Z,36.61
2022-09-12T16:08:20.876Z,36.14
2022-09-12T16:10:53.984Z,35.96
2022-09-12T16:13:21.865Z,36.66
2022-09-12T16:15:53.726Z,35.66
2022-09-12T16:18:21.519Z,37.98
2022-09-12T16:20:53.345Z,39.43
2022-09-12T16:23:21.539Z,38.36
2022-09-12T16:25:57.789Z,38.49
2022-09-12T16:28:25.839Z,38.69
2022-09-12T16:30:59.017Z,40.13
2022-09-12T16:33:27.569Z,38.58
2022-09-12T16:36:03.282Z,38.44
2022-09-12T16:38:31.193Z,38.95
2022-09-12T16:41:02.422Z,39.64
2022-09-12T16:43:30.745Z,40.44
2022-09-12T16:46:03.790Z,40.90
2022-09-12T16:48:32.362Z,40.65
2022-09-12T16:51:01.889Z,40.98
2022-09-12T16:53:31.589Z,41.21
2022-09-12T16:55:59.559Z,40.99
2022-09-12T16:58:27.685Z,42.17
2022-09-12T17:01:01.446Z,41.80
2022-09-12T17:03:31.019Z,42.93
2022-09-12T17:06:00.833Z,42.76
2022-09-12T17:08:28.698Z,42.45
2022-09-12T17:11:01.141Z,42.88
2022-09-12T17:13:41.328Z,43.32
2022-09-12T17:16:17.608Z,43.01
2022-09-12T17:18:46.805Z,43.62
2022-09-12T17:21:15.048Z,43.92
2022-09-12T17:23:43.354Z,43.52
2022-09-12T17:26:11.825Z,44.10
2022-09-12T17:28:40.582Z,45.25
2022-09-12T17:31:10.354Z,44.62
2022-09-12T17:33:39.115Z,45.42
2022-09-12T17:36:11.119Z,45.52
2022-09-12T17:38:40.625Z,45.82
2022-09-12T17:41:15.011Z,45.58
2022-09-12T17:43:43.581Z,44.92
2022-09-12T17:46:11.687Z,45.29
2022-09-12T17:48:39.597Z,46.00
2022-09-12T17:51:10.088Z,45.66
2022-09-12T17:53:37.979Z,46.91
2022-09-12T17:56:07.155Z,46.37
2022-09-12T17:58:35.542Z,46.99
2022-09-12T18:01:22.328Z,47.26
2022-09-12T18:03:50.681Z,47.03
2022-09-12T18:06:19.837Z,47.94
2022-09-12T18:08:47.617Z,49.10
2022-09-12T18:11:15.664Z,49.03
2022-09-12T18:13:43.570Z,48.27
2022-09-12T18:16:13.109Z,49.79
2022-09-12T18:18:41.527Z,49.47
2022-09-12T18:21:12.284Z,50.29
2022-09-12T18:23:41.460Z,50.63
2022-09-12T18:26:13.091Z,51.11
2022-09-12T18:28:42.463Z,51.86
2022-09-12T18:31:13.286Z,52.14
2022-09-12T18:33:41.630Z,51.41
2022-09-12T18:36:13.623Z,51.53
2022-09-12T18:38:43.513Z,52.00
2022-09-12T18:41:13.226Z,52.17
2022-09-12T18:43:40.988Z,53.42
2022-09-12T18:46:11.140Z,53.55
2022-09-12T18:48:39.427Z,54.96
2022-09-12T18:51:12.430Z,55.52
2022-09-12T18:53:40.566Z,54.53
2022-09-12T18:56:12.102Z,54.76
2022-09-12T18:58:42.575Z,55.18
2022-09-12T19:01:12.096Z,54.58
2022-09-12T19:03:40.173Z,54.45
2022-09-12T19:06:11.748Z,54.75
2022-09-12T19:08:40.118Z,54.52
2022-09-12T19:11:09.977Z,55.43
2022-09-12T19:13:40.055Z,55.69
2022-09-12T19:16:10.502Z,55.79
2022-09-12T19:18:39.566Z,55.82
2022-09-12T19:21:08.930Z,56.26
2022-09-12T19:23:38.900Z,59.79
2022-09-12T19:26:10.789Z,58.71
2022-09-12T19:28:38.890Z,57.81
2022-09-12T19:31:07.465Z,57.86
2022-09-12T19:33:35.654Z,58.56
2022-09-12T19:36:04.339Z,62.04
2022-09-12T19:38:32.143Z,60.94
2022-09-12T19:41:01.034Z,60.80
2022-09-12T19:43:31.613Z,60.43
2022-09-12T19:46:00.047Z,60.20
2022-09-12T19:48:28.300Z,60.37
2022-09-12T19:50:59.889Z,60.12
2022-09-12T19:53:28.227Z,60.42
2022-09-12T19:56:00.310Z,61.38
2022-09-12T19:58:28.529Z,63.32
2022-09-12T20:00:58.551Z,62.04
2022-09-12T20:03:26.346Z,61.03
2022-09-12T20:05:54.109Z,63.62
2022-09-12T20:08:21.956Z,63.72
2022-09-12T20:10:52.784Z,64.25
2022-09-12T20:13:22.914Z,64.88
2022-09-12T20:15:50.677Z,63.97
2022-09-12T20:18:19.891Z,62.78
2022-09-12T20:20:47.642Z,61.99
2022-09-12T20:23:15.360Z,61.67
2022-09-12T20:25:43.166Z,61.93
2022-09-12T20:28:10.932Z,62.35
2022-09-12T20:30:38.673Z,63.97
2022-09-12T20:33:08.935Z,65.60
2022-09-12T20:35:38.123Z,65.79
2022-09-12T20:38:05.867Z,63.75
2022-09-12T20:40:33.571Z,64.65
2022-09-12T20:43:01.379Z,65.51
2022-09-12T20:45:29.147Z,66.36
2022-09-12T20:47:56.912Z,64.99
2022-09-12T20:50:24.670Z,64.84
2022-09-12T20:52:53.772Z,65.43
2022-09-12T20:55:21.491Z,64.71
2022-09-12T20:57:50.556Z,63.91
2022-09-12T21:00:18.853Z,64.90
2022-09-12T21:02:46.659Z,64.80
2022-09-12T21:05:14.473Z,65.19
2022-09-12T21:07:42.226Z,65.25
2022-09-12T21:10:11.726Z,65.51
2022-09-12T21:12:39.543Z,66.44
2022-09-12T21:15:08.292Z,67.80
2022-09-12T21:17:36.056Z,68.99
2022-09-12T21:20:06.921Z,68.96
2022-09-12T21:22:37.216Z,67.36
2022-09-12T21:25:05.630Z,65.26
2022-09-12T21:27:34.789Z,65.13
2022-09-12T21:30:03.658Z,64.92
2022-09-12T21:32:34.729Z,65.78
2022-09-12T21:35:03.004Z,65.52
2022-09-12T21:37:32.942Z,66.02
2022-09-12T21:40:00.737Z,64.87
2022-09-12T21:42:28.501Z,65.31
2022-09-12T21:44:57.610Z,65.39
2022-09-12T21:47:27.447Z,65.62
2022-09-12T21:49:55.654Z,66.13
2022-09-12T21:52:23.350Z,67.72
2022-09-12T21:54:51.089Z,68.17
2022-09-12T21:57:18.814Z,66.69
2022-09-12T21:59:46.587Z,66.69
2022-09-12T22:02:15.907Z,66.35
2022-09-12T22:04:44.027Z,65.91
2022-09-12T22:07:11.862Z,66.06
2022-09-12T22:09:39.594Z,65.51
2022-09-12T22:12:07.621Z,65.58
2022-09-12T22:14:35.860Z,65.89
2022-09-12T22:17:03.848Z,65.99
2022-09-12T22:19:35.076Z,66.16
2022-09-12T22:22:20.106Z,66.65
2022-09-12T22:24:47.883Z,66.84
2022-09-12T22:27:15.715Z,66.45
2022-09-12T22:29:46.090Z,65.68
2022-09-12T22:32:14.627Z,66.15
2022-09-12T22:34:43.955Z,66.77
2022-09-12T22:37:12.380Z,67.33
2022-09-12T22:39:40.564Z,66.67
2022-09-12T22:42:09.616Z,66.66
2022-09-12T22:44:37.389Z,65.90
2022-09-12T22:47:07.529Z,65.45
2022-09-12T22:49:35.316Z,65.15
2022-09-12T22:52:04.685Z,65.60
2022-09-12T22:54:34.984Z,65.51
2022-09-12T22:57:02.701Z,64.97
2022-09-12T22:59:30.471Z,65.37
2022-09-12T23:01:58.237Z,64.90
2022-09-12T23:04:26.029Z,64.93
2022-09-12T23:06:54.019Z,65.03
2022-09-12T23:09:23.541Z,65.07
2022-09-12T23:11:53.720Z,65.20
2022-09-12T23:14:21.550Z,65.12
2022-09-12T23:16:49.399Z,65.64
2022-09-12T23:19:17.184Z,65.56
2022-09-12T23:21:45.718Z,65.46
2022-09-12T23:24:13.540Z,65.24
2022-09-12T23:26:42.841Z,65.21
2022-09-12T23:29:11.385Z,65.89
2022-09-12T23:31:39.548Z,66.69
2022-09-12T23:34:07.361Z,67.03
2022-09-12T23:36:35.453Z,67.31
2022-09-12T23:39:03.296Z,67.67
2022-09-12T23:41:31.181Z,66.82
2022-09-12T23:44:00.645Z,67.40
2022-09-12T23:46:28.548Z,68.36
2022-09-12T23:48:56.299Z,70.13
2022-09-12T23:51:24.100Z,71.21
2022-09-12T23:53:51.988Z,71.17
2022-09-12T23:56:19.744Z,70.02
2022-09-12T23:58:47.565Z,69.46
